ROTAER D-AMDT 5/22 Ver mudanças

Carauari ( SWCA ) / CARAUARI, AM 04 52 17S/066 53 51W
AD PUB 1NW UTC-4 HJ 108 (354)

04 - ( 1665x18 ASPH 12/F/C/Y/T ) - 22

SBAZ (CINDACTA 4)
CMB- [1] PF [1] TF

RMK -

OBSTÁCULO DE AERÓDROMO
  1. OBS OBST (casa) DIST 180M THR 04, AZM 218DEG, ELEV 365FT
INFORMAÇÃO ADICIONAL
  1. OBS concentração de pássaros (urubus) nas proximidades do AD.
COMPL -
  • [1] (DLY 1000-2200)
TEMP (0)

Suplementos AIP (0)

NOTAM (0)

Nascer/Por do Sol

10:28

22:20


METAR

251900Z AUTO 09007KT 060V130 9999 FEW044 31/23 Q1012=

TAF


OPEA/Obstáculos


Cartas (0)


Rotas Preferenciais (0)